Time;durP1;ratioP1;P1;durP2;ratioP2;P2;SDS_P1;SDS_P2;PMS_P1;PMS_P2;Temp;Humidity;BMP_temperature;BMP_pressure;BME280_temperature;BME280_humidity;BME280_pressure;Samples;Min_cycle;Max_cycle;Signal;HPM_P1;HPM_P2
2023/06/21 00:05:07;;;;;;;;;;;;;;;18.59;100.00;97598.56;18560357;32;19963;-58
2023/06/21 00:15:10;;;;;;;;;;;;;;;18.54;100.00;97620.66;18559994;32;19949;-59
2023/06/21 00:25:14;;;;;;;;;;;;;;;18.45;100.00;97611.66;18560899;31;19968;-59
2023/06/21 00:35:17;;;;;;;;;;;;;;;18.42;100.00;97606.84;18572091;32;19982;-59
2023/06/21 00:45:20;;;;;;;;;;;;;;;18.42;100.00;97634.22;18571244;32;19991;-59
2023/06/21 00:55:23;;;;;;;;;;;;;;;18.36;100.00;97660.91;18570388;32;19949;-58
2023/06/21 01:05:25;;;;;;;;;;;;;;;18.25;100.00;97678.78;18570183;32;20341;-59
2023/06/21 01:15:32;;;;;;;;;;;;;;;18.21;100.00;97706.00;18569264;32;19956;-59
2023/06/21 01:25:43;;;;;;;;;;;;;;;18.29;100.00;97718.06;18568778;31;19972;-59
2023/06/21 01:35:45;;;;;;;;;;;;;;;18.37;100.00;97724.69;18568411;32;19957;-59
2023/06/21 01:45:48;;;;;;;;;;;;;;;18.40;100.00;97729.53;18553421;31;20020;-59
2023/06/21 01:55:51;;;;;;;;;;;;;;;18.50;100.00;97742.91;18552984;32;19960;-59
2023/06/21 02:05:55;;;;;;;;;;;;;;;18.54;100.00;97774.00;18566461;32;19980;-59
2023/06/21 02:15:57;;;;;;;;;;;;;;;18.62;100.00;97780.59;18565881;32;19956;-59
2023/06/21 02:26:00;;;;;;;;;;;;;;;18.76;100.00;97791.41;18564872;31;19983;-59
2023/06/21 02:36:03;;;;;;;;;;;;;;;18.78;100.00;97789.19;18564681;32;19957;-59
2023/06/21 02:46:05;;;;;;;;;;;;;;;18.73;100.00;97784.66;18564403;32;19971;-59
2023/06/21 02:56:08;;;;;;;;;;;;;;;18.63;100.00;97826.84;18548686;32;19961;-59
2023/06/21 03:06:13;;;;;;;;;;;;;;;18.59;100.00;97828.59;18562862;32;19956;-59
2023/06/21 03:16:15;;;;;;;;;;;;;;;18.57;100.00;97830.88;18562206;32;19993;-59
2023/06/21 03:26:17;;;;;;;;;;;;;;;18.51;100.00;97828.59;18561434;31;20017;-59
2023/06/21 03:36:20;;;;;;;;;;;;;;;18.45;100.00;97819.72;18561213;31;19972;-59
2023/06/21 03:46:22;;;;;;;;;;;;;;;18.34;100.00;97834.84;18547425;32;20307;-59
2023/06/21 03:56:25;;;;;;;;;;;;;;;18.27;100.00;97830.63;18560802;32;19975;-59
2023/06/21 04:06:27;;;;;;;;;;;;;;;18.25;100.00;97841.09;18571296;32;20331;-59
2023/06/21 04:16:29;;;;;;;;;;;;;;;18.28;100.00;97828.66;18558618;32;19972;-59
2023/06/21 04:26:33;;;;;;;;;;;;;;;18.29;100.00;97820.16;18572180;31;20274;-59
2023/06/21 04:36:38;;;;;;;;;;;;;;;18.34;100.00;97813.72;18571967;32;20392;-59
2023/06/21 04:46:44;;;;;;;;;;;;;;;18.38;100.00;97820.19;18572276;32;20309;-59
2023/06/21 04:56:48;;;;;;;;;;;;;;;18.38;100.00;97824.88;18571188;32;20020;-59
2023/06/21 05:06:51;;;;;;;;;;;;;;;18.43;100.00;97825.53;18570195;32;20053;-59
2023/06/21 05:16:56;;;;;;;;;;;;;;;18.64;100.00;97849.56;18568702;32;20384;-59
2023/06/21 05:27:03;;;;;;;;;;;;;;;18.98;100.00;97858.19;18568461;32;20279;-59
2023/06/21 05:37:19;;;;;;;;;;;;;;;19.11;100.00;97858.03;18553998;32;20363;-60
2023/06/21 05:47:25;;;;;;;;;;;;;;;19.21;100.00;97848.72;18567761;32;19960;-59
2023/06/21 05:57:39;;;;;;;;;;;;;;;19.52;100.00;97855.16;18566775;32;19953;-59
2023/06/21 06:07:44;;;;;;;;;;;;;;;20.12;100.00;97847.94;18566161;32;19983;-59
2023/06/21 06:17:49;;;;;;;;;;;;;;;20.54;100.00;97820.59;18565533;31;19972;-60
2023/06/21 06:27:55;;;;;;;;;;;;;;;20.28;100.00;98008.25;18550828;31;20000;-58
2023/06/21 06:38:02;;;;;;;;;;;;;;;19.45;100.00;98004.50;18564042;32;19971;-59
2023/06/21 06:48:43;;;;;;;;;;;;;;;19.01;100.00;98104.19;18563568;32;19993;-59
2023/06/21 06:58:49;;;;;;;;;;;;;;;18.68;100.00;98161.97;18563172;32;19977;-59
2023/06/21 07:09:09;;;;;;;;;;;;;;;18.41;100.00;98098.00;18562693;32;20299;-59
2023/06/21 07:19:17;;;;;;;;;;;;;;;18.36;100.00;98037.88;18535349;32;19960;-60
2023/06/21 07:29:20;;;;;;;;;;;;;;;18.31;100.00;97966.84;18561569;32;19967;-60
2023/06/21 07:39:23;;;;;;;;;;;;;;;18.27;100.00;97981.16;18561213;32;19944;-60
2023/06/21 07:49:25;;;;;;;;;;;;;;;18.51;100.00;97976.47;18561415;32;20005;-60
2023/06/21 07:59:28;;;;;;;;;;;;;;;18.93;100.00;97986.00;18546661;32;20400;-59
2023/06/21 08:09:31;;;;;;;;;;;;;;;19.28;100.00;97991.59;18560243;32;19968;-60
2023/06/21 08:19:33;;;;;;;;;;;;;;;19.98;100.00;97988.91;18560113;32;20283;-60
2023/06/21 08:29:41;;;;;;;;;;;;;;;21.49;100.00;97979.78;18559672;32;19962;-60
2023/06/21 08:40:01;;;;;;;;;;;;;;;21.97;100.00;97980.41;18559469;32;20017;-60
2023/06/21 08:50:25;;;;;;;;;;;;;;;22.36;100.00;97969.19;18553451;32;20012;-60
2023/06/21 09:00:38;;;;;;;;;;;;;;;22.79;100.00;97987.97;18570328;32;20314;-59
2023/06/21 09:10:51;;;;;;;;;;;;;;;22.85;100.00;97996.84;18543294;32;20329;-59
2023/06/21 09:21:10;;;;;;;;;;;;;;;23.15;100.00;98004.91;18569621;32;19961;-59
2023/06/21 09:31:14;;;;;;;;;;;;;;;23.19;100.00;98016.88;18568234;32;19992;-58
2023/06/21 09:41:20;;;;;;;;;;;;;;;23.70;100.00;98019.22;18568117;32;19971;-59
2023/06/21 09:51:28;;;;;;;;;;;;;;;24.22;100.00;98034.16;18567367;31;19996;-59
2023/06/21 10:01:44;;;;;;;;;;;;;;;24.16;100.00;98052.13;18567270;32;20284;-58
2023/06/21 10:12:04;;;;;;;;;;;;;;;;;;;;;
2023/06/21 10:22:39;;;;;;;;;;;;;;;25.03;100.00;98022.88;18565457;32;19953;-59
2023/06/21 10:32:43;;;;;;;;;;;;;;;25.36;100.00;98015.38;18485358;32;19989;-59
2023/06/21 10:42:48;;;;;;;;;;;;;;;25.75;100.00;98011.87;18499305;32;20029;-59
2023/06/21 10:52:56;;;;;;;;;;;;;;;26.24;100.00;98011.31;18484171;32;19965;-59
2023/06/21 11:02:59;;;;;;;;;;;;;;;26.47;100.00;98021.66;18498340;32;19973;-59
2023/06/21 11:13:05;;;;;;;;;;;;;;;26.70;100.00;98010.63;18483537;32;19952;-59
2023/06/21 11:23:08;;;;;;;;;;;;;;;26.69;100.00;98009.00;18497066;32;19961;-59
2023/06/21 11:33:22;;;;;;;;;;;;;;;27.22;100.00;98000.00;18551836;32;19953;-59
2023/06/21 11:43:26;;;;;;;;;;;;;;;27.89;100.00;98007.69;18561117;31;19979;-60
2023/06/21 11:54:11;;;;;;;;;;;;;;;28.45;99.79;97998.81;18561170;32;20298;-60
2023/06/21 12:04:28;;;;;;;;;;;;;;;28.97;91.52;98010.88;18560430;32;19952;-59
2023/06/21 12:14:36;;;;;;;;;;;;;;;29.29;87.81;98009.56;18560330;32;19975;-59
2023/06/21 12:24:43;;;;;;;;;;;;;;;29.67;84.41;98011.00;18554054;31;19963;-59
2023/06/21 12:34:47;;;;;;;;;;;;;;;30.11;77.29;98005.63;18558662;32;20356;-59
2023/06/21 12:44:56;;;;;;;;;;;;;;;30.51;75.34;98001.00;18544930;32;20293;-59
2023/06/21 12:55:01;;;;;;;;;;;;;;;31.09;74.10;98004.66;18571070;32;19979;-59
2023/06/21 13:05:33;;;;;;;;;;;;;;;31.35;72.88;98009.00;18559765;32;20309;-59
2023/06/21 13:15:36;;;;;;;;;;;;;;;30.41;69.42;98006.13;18569760;32;20030;-59
2023/06/21 13:25:39;;;;;;;;;;;;;;;28.86;81.67;97999.66;18568767;31;19983;-59
2023/06/21 13:35:42;;;;;;;;;;;;;;;27.75;99.81;97995.59;18567865;31;20320;-59
2023/06/21 13:45:45;;;;;;;;;;;;;;;27.16;100.00;97991.19;18554100;32;19972;-59
2023/06/21 13:55:49;;;;;;;;;;;;;;;26.92;100.00;97969.38;18567398;32;19996;-59
2023/06/21 14:05:52;;;;;;;;;;;;;;;26.77;100.00;97990.53;18552641;32;19989;-59
2023/06/21 14:15:55;;;;;;;;;;;;;;;26.75;100.00;98053.91;18566372;32;20282;-59
2023/06/21 14:25:58;;;;;;;;;;;;;;;26.81;100.00;98014.38;18565356;31;19969;-59
2023/06/21 14:36:01;;;;;;;;;;;;;;;26.85;100.00;97983.94;18564682;32;20234;-59
2023/06/21 14:46:04;;;;;;;;;;;;;;;26.25;100.00;97937.31;18548965;32;19985;-59
2023/06/21 14:56:08;;;;;;;;;;;;;;;26.12;100.00;97983.75;18549685;32;19979;-58
2023/06/21 15:06:11;;;;;;;;;;;;;;;26.05;100.00;98014.91;18563032;32;19989;-59
2023/06/21 15:16:14;;;;;;;;;;;;;;;25.94;100.00;98009.13;18562721;32;19990;-59
2023/06/21 15:26:18;;;;;;;;;;;;;;;25.71;100.00;97984.91;18547339;32;19967;-59
2023/06/21 15:36:21;;;;;;;;;;;;;;;25.34;100.00;97952.06;18547639;32;19944;-59
2023/06/21 15:46:25;;;;;;;;;;;;;;;25.19;100.00;97903.09;18561323;32;20325;-59
2023/06/21 15:56:29;;;;;;;;;;;;;;;25.40;100.00;97902.78;18563980;32;19948;-59
2023/06/21 16:06:32;;;;;;;;;;;;;;;25.56;100.00;97893.59;18574070;32;19993;-59
2023/06/21 16:16:36;;;;;;;;;;;;;;;25.93;100.00;97885.62;18573426;32;19945;-58
2023/06/21 16:26:39;;;;;;;;;;;;;;;26.01;100.00;97829.19;18572376;31;20008;-59
2023/06/21 16:36:42;;;;;;;;;;;;;;;25.85;100.00;97806.34;18558216;32;19974;-59
2023/06/21 16:46:45;;;;;;;;;;;;;;;26.49;100.00;97845.44;18571673;32;19980;-58
2023/06/21 16:56:48;;;;;;;;;;;;;;;26.16;100.00;97846.06;18556907;32;19984;-59
2023/06/21 17:06:51;;;;;;;;;;;;;;;25.68;100.00;97802.06;18569390;32;20329;-58
2023/06/21 17:16:54;;;;;;;;;;;;;;;24.83;100.00;97786.09;18555162;31;19972;-59
2023/06/21 17:26:57;;;;;;;;;;;;;;;24.14;100.00;97811.34;18555008;31;19960;-59
2023/06/21 17:37:00;;;;;;;;;;;;;;;23.66;100.00;97798.25;18554859;32;19972;-59
2023/06/21 17:47:05;;;;;;;;;;;;;;;23.13;100.00;97814.94;18567950;32;20342;-59
2023/06/21 17:57:11;;;;;;;;;;;;;;;22.78;100.00;97831.19;18553552;32;19968;-59
2023/06/21 18:07:15;;;;;;;;;;;;;;;22.52;100.00;97813.06;18552852;32;19956;-59
2023/06/21 18:17:18;;;;;;;;;;;;;;;22.32;100.00;97832.12;18552025;32;19944;-58
2023/06/21 18:27:22;;;;;;;;;;;;;;;22.16;100.00;97825.69;18565042;31;20280;-58
2023/06/21 18:37:25;;;;;;;;;;;;;;;22.04;100.00;97811.91;18538154;32;19979;-58
2023/06/21 18:47:28;;;;;;;;;;;;;;;21.97;100.00;97795.94;18550233;32;20302;-59
2023/06/21 18:57:31;;;;;;;;;;;;;;;21.90;100.00;97795.69;18563572;32;19971;-59
2023/06/21 19:07:35;;;;;;;;;;;;;;;21.85;100.00;97763.69;18563626;31;20272;-59
2023/06/21 19:17:39;;;;;;;;;;;;;;;21.62;100.00;97758.59;18562723;32;19953;-59
2023/06/21 19:27:44;;;;;;;;;;;;;;;21.40;100.00;97757.03;18561827;32;19963;-59
2023/06/21 19:37:47;;;;;;;;;;;;;;;21.23;100.00;97765.47;18547380;32;19992;-58
2023/06/21 19:47:50;;;;;;;;;;;;;;;21.08;100.00;97777.88;18547359;32;19983;-58
2023/06/21 19:57:54;;;;;;;;;;;;;;;20.99;100.00;97770.53;18546950;32;19957;-58
2023/06/21 20:07:57;;;;;;;;;;;;;;;20.85;100.00;97745.25;18533508;32;19974;-58
2023/06/21 20:17:59;;;;;;;;;;;;;;;20.69;100.00;97739.53;18560292;32;19972;-58
2023/06/21 20:28:02;;;;;;;;;;;;;;;20.53;100.00;97736.56;18560117;31;19964;-58
2023/06/21 20:38:06;;;;;;;;;;;;;;;20.36;100.00;97740.22;18545524;32;20325;-58
2023/06/21 20:48:09;;;;;;;;;;;;;;;20.21;100.00;97738.88;18569175;32;19952;-58
2023/06/21 20:58:11;;;;;;;;;;;;;;;20.06;100.00;97744.94;18570807;31;19963;-58
2023/06/21 21:08:14;;;;;;;;;;;;;;;19.93;100.00;97752.25;18556024;32;19975;-58
2023/06/21 21:18:16;;;;;;;;;;;;;;;19.82;100.00;97734.56;18569911;32;20377;-58
2023/06/21 21:28:18;;;;;;;;;;;;;;;19.67;100.00;97736.69;18568929;31;19964;-59
2023/06/21 21:38:22;;;;;;;;;;;;;;;19.55;100.00;97723.63;18568644;32;19948;-58
2023/06/21 21:48:24;;;;;;;;;;;;;;;19.44;100.00;97728.66;18553906;32;19989;-58
2023/06/21 21:58:27;;;;;;;;;;;;;;;19.33;100.00;97723.88;18567084;32;19953;-58
2023/06/21 22:08:30;;;;;;;;;;;;;;;19.21;100.00;97730.84;18566971;32;19986;-58
2023/06/21 22:18:33;;;;;;;;;;;;;;;19.10;100.00;97746.81;18552190;32;19994;-58
2023/06/21 22:28:37;;;;;;;;;;;;;;;19.03;100.00;97746.47;18551192;31;19983;-58
2023/06/21 22:38:41;;;;;;;;;;;;;;;18.93;100.00;97758.56;18550566;32;20379;-58
2023/06/21 22:48:43;;;;;;;;;;;;;;;18.79;100.00;97746.97;18564135;32;20269;-58
2023/06/21 22:58:45;;;;;;;;;;;;;;;18.73;100.00;97753.72;18563830;32;19991;-59
2023/06/21 23:08:51;;;;;;;;;;;;;;;18.65;100.00;97749.03;18563080;32;20246;-58
2023/06/21 23:18:54;;;;;;;;;;;;;;;18.55;100.00;97741.94;18562541;32;19961;-58
2023/06/21 23:28:56;;;;;;;;;;;;;;;18.49;100.00;97738.56;18547406;31;20003;-59
2023/06/21 23:38:59;;;;;;;;;;;;;;;18.43;100.00;97756.25;18547495;32;20345;-59
2023/06/21 23:49:03;;;;;;;;;;;;;;;18.33;100.00;97730.00;18561497;32;20273;-58
2023/06/21 23:59:05;;;;;;;;;;;;;;;18.21;100.00;97724.34;18547044;32;19957;-59
